Date,TemperatureHighF,TemperatureAvgF,TemperatureLowF,DewpointHighF,DewpointAvgF,DewpointLowF,HumidityHigh,HumidityAvg,HumidityLow,PressureMaxIn,PressureMinIn,WindSpeedMaxMPH,WindSpeedAvgMPH,GustSpeedMaxMPH,PrecipitationSumIn
2013-1-1,39.9,36.5,32.4,29.3,28.0,25.6,85,71,58,30.01,29.91,13,2,13,0.00
2013-1-2,32.6,29.5,25.2,28.5,19.7,13.4,85,67,51,30.21,29.98,17,4,17,0.00
2013-1-3,36.3,27.2,17.6,21.4,17.8,12.8,84,68,52,30.21,30.11,14,1,14,0.00
2013-1-4,37.6,32.6,29.3,22.3,20.7,18.6,71,62,50,30.18,30.10,20,5,20,0.00
2013-1-5,42.3,34.0,28.6,27.0,22.2,20.0,78,62,46,30.36,30.14,30,3,30,0.00
2013-1-6,41.4,37.1,29.7,31.2,27.2,23.7,80,68,57,30.16,30.02,12,1,12,0.00
2013-1-7,39.2,33.6,23.2,31.5,25.5,19.8,88,72,57,30.43,30.15,16,3,16,0.00
2013-1-8,50.4,33.3,22.5,32.7,26.0,20.1,94,77,46,30.38,30.30,8,1,8,0.00
2013-1-9,51.1,38.3,25.7,43.6,32.1,24.0,96,80,51,30.42,30.22,17,2,17,0.00
2013-1-10,51.3,43.2,36.2,33.2,30.2,27.5,71,60,46,30.59,30.41,16,2,16,0.00
2013-1-11,45.5,39.1,33.6,38.7,33.3,28.4,100,80,64,30.45,30.08,12,2,12,0.04
2013-1-12,54.2,43.3,38.0,49.6,42.1,37.9,100,96,84,30.16,30.08,9,1,9,0.00
2013-1-13,58.7,48.6,39.0,55.8,47.1,39.0,100,95,83,30.09,29.95,5,1,5,0.01
2013-1-14,60.5,48.1,35.3,58.7,43.1,33.6,100,83,67,30.31,29.95,18,4,18,0.28
2013-1-15,36.9,34.2,31.1,34.8,32.4,30.8,100,94,82,30.34,30.14,7,2,7,0.60
2013-1-16,40.1,33.8,30.4,39.6,33.2,30.4,100,97,93,30.14,29.82,10,2,10,0.49
2013-1-17,41.9,36.9,33.1,38.0,29.2,25.1,94,74,54,30.13,29.98,12,3,12,0.00
2013-1-18,36.0,30.2,24.8,28.1,18.1,11.7,80,61,41,30.46,30.07,25,4,25,0.00
2013-1-19,54.2,36.6,29.7,29.1,24.2,21.3,76,62,35,30.34,29.92,13,5,14,0.00
2013-1-20,51.6,41.2,27.3,31.1,20.8,8.0,63,46,21,30.07,29.82,19,4,29,0.00
2013-1-21,39.0,29.4,22.7,20.3,15.7,12.0,68,57,35,30.08,29.80,18,4,23,0.00
2013-1-22,21.2,14.7,10.6,9.5,-2.5,-5.0,60,46,38,30.24,29.96,22,5,22,0.00
2013-1-23,21.4,16.2,10.1,10.7,1.3,-1.2,77,52,39,30.29,30.08,18,2,18,0.00
2013-1-24,23.2,17.1,12.8,13.0,6.4,-0.5,90,65,41,30.48,30.05,23,4,23,0.00
2013-1-25,19.4,15.4,10.1,14.7,8.0,0.5,88,72,57,30.48,30.02,16,2,16,0.00
2013-1-26,29.7,23.2,13.8,24.6,18.8,11.2,95,84,70,30.42,30.03,12,2,12,0.01
2013-1-27,34.2,26.1,18.7,22.1,17.3,13.0,82,69,57,30.55,30.41,10,2,10,0.01
2013-1-28,50.7,37.6,27.0,45.7,33.8,21.8,98,87,76,30.41,30.04,11,2,11,0.05
2013-1-29,68.6,55.6,47.7,55.3,49.8,45.5,95,82,61,30.11,29.94,16,2,16,0.00
2013-1-30,68.2,55.7,49.1,59.0,52.8,46.6,100,90,71,29.94,29.28,16,3,16,1.19
2013-1-31,52.4,35.3,27.0,52.4,25.4,12.3,100,68,50,29.89,29.18,19,6,19,0.13
2013-2-1,27.5,20.4,13.1,22.3,8.8,1.6,92,61,47,30.34,29.80,29,6,29,0.00
2013-2-2,26.1,18.2,9.7,22.7,10.9,3.5,87,73,58,30.34,29.98,17,2,17,0.00
2013-2-3,31.5,26.2,21.6,26.7,21.5,13.1,95,83,62,29.98,29.79,20,2,20,0.01
2013-2-4,35.6,27.6,21.4,25.6,17.1,12.7,79,65,51,30.06,29.86,17,3,17,0.00
2013-2-5,37.1,31.9,29.0,32.9,29.0,23.5,100,89,79,29.92,29.82,9,1,9,0.00
2013-2-6,38.0,33.3,25.5,31.6,26.9,19.9,92,77,64,30.31,29.92,16,3,16,0.00
2013-2-7,35.8,30.1,22.1,27.8,23.0,17.7,84,75,63,30.38,30.16,19,5,19,0.00
2013-2-8,39.2,32.8,29.0,34.6,28.6,20.0,96,85,68,30.16,29.79,31,4,31,0.01
2013-2-9,37.2,29.9,21.8,20.0,17.2,12.9,76,60,41,30.37,29.94,36,8,36,0.01
2013-2-10,41.7,30.3,16.5,25.5,17.5,10.8,81,60,41,30.41,30.16,19,5,20,0.00
2013-2-11,59.9,40.8,32.9,49.8,35.3,25.5,100,83,37,30.16,29.75,5,0,5,0.09
2013-2-12,54.5,44.8,35.3,31.3,25.8,20.9,64,48,29,29.99,29.85,17,2,17,0.00
2013-2-13,40.1,32.8,25.9,31.8,26.2,20.5,99,77,58,29.94,29.67,12,1,12,0.02
2013-2-14,46.6,36.2,27.9,32.2,27.9,23.1,99,73,50,29.99,29.78,16,2,16,0.17
2013-2-15,50.2,38.1,30.6,34.8,30.3,25.0,88,74,53,30.03,29.93,18,3,18,0.10
2013-2-16,34.7,30.9,24.3,29.3,21.8,12.9,92,70,53,30.00,29.87,23,4,23,0.00
2013-2-17,25.0,21.8,19.1,15.9,10.0,3.8,80,61,44,30.20,29.86,31,6,31,0.00
2013-2-18,41.9,27.3,13.3,21.1,12.2,5.4,72,54,33,30.34,30.07,19,3,19,0.00
2013-2-19,48.8,38.7,30.0,38.6,28.5,19.9,86,67,49,30.07,29.67,23,5,23,0.02
2013-2-20,32.7,26.8,20.1,21.0,13.6,8.1,65,57,47,30.16,29.84,24,7,24,0.00
2013-2-21,32.7,25.1,19.8,16.6,13.6,9.3,71,62,49,30.30,30.10,27,7,27,0.00
2013-2-22,29.5,26.9,23.9,26.7,21.3,16.4,90,79,68,30.34,30.14,18,6,18,0.00
2013-2-23,47.5,35.6,29.1,39.2,31.7,26.4,97,86,71,30.15,29.83,9,1,9,0.00
2013-2-24,45.9,36.4,28.6,36.8,27.3,17.8,100,71,45,30.12,29.81,24,6,24,0.00
2013-2-25,42.1,31.7,24.1,23.9,20.8,18.1,81,65,45,30.21,30.11,14,2,14,0.00
2013-2-26,36.3,31.1,24.6,36.2,27.7,19.7,100,87,72,30.18,29.65,10,2,10,0.71
2013-2-27,49.5,40.4,33.8,40.9,33.8,30.8,100,79,53,29.71,29.57,13,3,13,0.01
2013-2-28,40.7,37.0,33.5,33.7,28.0,24.1,81,70,55,29.74,29.64,17,3,17,0.00
2013-3-1,36.5,34.1,29.7,29.1,25.4,21.4,81,70,58,29.91,29.74,17,4,17,0.00
2013-3-2,31.8,28.4,26.4,22.7,20.0,17.0,80,70,60,29.90,29.82,17,5,17,0.00
2013-3-3,33.5,28.5,25.2,21.3,18.0,15.0,80,65,51,29.94,29.83,23,6,23,0.00
2013-3-4,38.7,30.0,22.5,18.6,15.8,13.1,72,56,40,30.04,29.93,25,7,25,0.00
2013-3-5,46.2,37.3,28.8,30.1,21.0,17.5,95,53,34,30.05,29.78,26,4,26,0.00
2013-3-6,36.5,32.4,29.1,32.1,29.7,28.0,100,90,73,30.04,29.68,27,7,27,0.27
2013-3-7,41.6,37.3,33.8,29.3,27.3,24.6,82,67,55,30.19,30.03,26,6,26,0.00
2013-3-8,40.1,35.1,31.7,28.9,26.6,24.4,83,71,60,30.33,30.17,29,8,29,0.00
2013-3-9,54.2,39.1,31.3,28.8,26.1,23.7,79,62,32,30.37,30.26,24,3,24,0.00
2013-3-10,60.3,43.1,27.2,34.7,28.2,22.6,84,59,34,30.29,30.17,23,5,24,0.00
2013-3-11,54.2,46.0,36.5,48.3,35.8,27.4,89,68,44,30.17,29.86,26,5,26,0.00
2013-3-12,53.8,46.2,36.3,51.3,39.8,28.0,96,79,59,29.98,29.77,31,9,31,0.50
2013-3-13,43.4,35.5,28.2,28.9,24.4,18.1,81,65,42,30.07,29.91,25,5,25,0.00
2013-3-14,39.2,32.3,26.6,21.4,17.8,15.1,76,56,40,30.14,30.04,35,8,35,0.00
2013-3-15,55.4,41.1,26.8,34.7,25.7,18.5,76,55,42,30.10,29.79,18,3,18,0.00
2013-3-16,52.7,41.9,33.6,43.7,35.9,31.8,95,79,69,29.92,29.64,18,3,18,0.01
2013-3-17,35.8,33.6,31.8,32.4,28.3,24.4,97,82,65,30.23,29.91,12,2,12,0.00
2013-3-18,33.1,29.5,27.5,30.0,28.0,25.2,100,94,77,30.27,29.88,21,4,21,0.00
2013-3-19,52.7,39.4,29.9,39.0,25.5,9.9,100,66,21,29.93,29.73,27,4,27,0.25
2013-3-20,47.1,37.9,29.0,27.5,17.2,12.2,85,45,28,29.98,29.76,22,5,22,0.00
2013-3-21,31.5,27.1,23.9,27.1,14.5,8.4,85,60,43,29.89,29.77,26,6,26,0.00
2013-3-22,42.3,32.2,24.3,20.1,16.6,12.2,66,53,39,30.00,29.87,25,5,25,0.00
2013-3-23,49.1,36.9,23.4,24.0,20.9,17.8,82,55,33,30.02,29.90,30,3,30,0.00
2013-3-24,37.4,30.6,25.0,28.0,23.4,19.5,94,75,56,29.98,29.62,12,1,12,0.00
2013-3-25,36.2,31.8,28.8,32.0,29.7,27.8,100,92,83,29.70,29.52,7,1,7,0.48
2013-3-26,44.1,36.8,30.8,30.8,28.5,25.0,95,73,53,30.00,29.70,22,5,22,0.17
2013-3-27,42.3,37.0,32.2,32.2,27.7,25.5,83,69,54,30.12,30.00,25,6,25,0.00
2013-3-28,42.3,38.3,35.1,30.2,28.1,26.9,75,67,58,30.22,30.08,27,6,27,0.00
2013-3-29,51.3,41.8,32.6,32.4,28.6,24.3,85,61,38,30.23,30.13,18,3,18,0.00
2013-3-30,56.0,43.0,32.2,30.2,27.1,23.2,78,56,31,30.22,30.08,21,3,21,0.00
2013-3-31,48.4,41.8,37.6,44.7,36.7,28.8,93,82,68,30.08,29.74,11,1,11,0.17
2013-4-1,56.3,45.6,36.5,44.2,34.3,19.4,92,65,46,29.98,29.75,34,5,34,0.00
2013-4-2,42.8,36.0,27.5,20.0,15.9,11.6,64,45,32,30.16,29.98,29,5,29,0.00
2013-4-3,45.2,35.6,25.7,19.7,16.4,12.1,70,47,28,30.36,30.15,34,5,34,0.00
2013-4-4,46.4,33.7,19.6,31.0,16.8,11.6,85,52,30,30.36,30.03,22,4,22,0.00
2013-4-5,60.1,45.6,31.3,35.9,29.1,21.2,96,58,30,30.06,29.84,24,5,24,0.00
2013-4-6,53.6,42.2,31.1,27.8,22.4,18.4,67,47,28,30.30,30.06,20,5,20,0.00
2013-4-7,64.8,46.9,33.6,43.5,34.3,27.3,79,62,46,30.19,29.97,15,4,19,0.00
2013-4-8,76.5,66.9,50.4,50.9,47.0,42.6,77,51,35,30.07,29.93,29,3,29,0.00
2013-4-9,81.5,70.5,56.5,56.7,52.9,47.5,73,55,38,30.11,29.94,19,3,19,0.00
2013-4-10,86.9,75.1,62.4,59.0,55.2,51.4,67,51,34,29.99,29.80,16,3,16,0.00
2013-4-11,81.3,68.2,53.3,61.7,55.5,49.2,90,66,44,29.91,29.72,22,4,22,0.00
2013-4-12,71.1,57.7,50.2,62.5,52.9,38.8,100,85,48,29.81,29.58,29,4,29,0.42
2013-4-13,66.4,53.9,44.3,41.2,35.3,28.1,69,51,28,29.97,29.80,23,4,23,0.00
2013-4-14,63.5,51.6,38.0,42.6,37.1,31.6,81,59,39,30.14,29.97,18,3,18,0.00
2013-4-15,61.9,55.4,50.9,51.4,47.1,41.9,91,74,65,30.25,30.10,24,7,24,0.00
2013-4-16,72.3,61.4,51.6,61.7,55.5,49.5,97,82,64,30.25,30.09,24,7,24,0.00
2013-4-17,67.8,61.2,53.1,61.8,57.7,53.1,100,89,76,30.22,30.12,12,2,14,0.15
2013-4-18,70.9,62.8,57.2,62.5,58.0,53.6,99,85,68,30.21,29.95,26,8,26,0.00
2013-4-19,71.8,63.8,50.9,62.5,58.5,40.7,93,83,68,29.95,29.60,21,5,21,0.90
2013-4-20,47.9,47.9,47.9,29.6,29.6,29.6,49,49,49,30.07,30.07,3,3,14,0.00
2013-5-1,66.6,60.0,46.1,46.6,41.1,37.6,77,51,37,30.40,30.34,0,0,0,0.00
2013-5-2,65.3,52.7,38.0,49.6,43.4,35.9,96,73,47,30.41,30.30,0,0,0,0.00
2013-5-3,65.3,52.1,38.7,49.7,43.6,36.5,99,75,49,30.37,30.25,0,0,0,0.00
2013-5-4,64.2,50.9,37.2,47.8,42.0,34.3,98,74,47,30.31,30.15,0,0,0,0.00
2013-5-5,60.5,49.0,38.0,45.0,40.3,35.6,94,73,52,30.21,30.11,0,0,0,0.00
2013-5-6,55.1,49.3,41.7,55.1,47.3,38.9,100,93,86,30.15,30.03,0,0,0,0.11
2013-5-7,58.5,55.7,51.8,58.2,55.5,51.8,100,99,98,30.03,29.92,0,0,0,1.51
2013-5-8,63.5,53.6,46.6,56.9,51.6,46.1,100,93,75,30.00,29.92,0,0,0,0.40
2013-5-9,70.9,57.4,45.0,58.6,52.3,45.0,100,85,56,30.03,29.90,0,0,0,0.01
2013-5-10,79.7,62.4,48.6,62.0,56.3,48.1,100,83,51,30.01,29.86,0,0,0,0.28
2013-5-11,72.9,63.3,57.8,64.5,58.2,51.6,100,84,62,29.89,29.74,0,0,0,0.03
2013-5-12,59.4,52.3,40.3,52.5,37.1,26.8,87,58,37,30.02,29.78,0,0,0,0.00
2013-5-13,54.3,46.2,37.6,33.2,29.5,23.5,78,54,33,30.15,30.00,0,0,0,0.00
2013-5-14,61.7,47.6,29.9,41.7,34.7,26.7,91,64,37,30.18,29.98,0,0,0,0.00
2013-5-15,87.5,66.3,44.8,65.7,52.1,40.9,90,64,32,29.98,29.68,0,0,0,0.00
2013-5-16,77.2,70.1,-2.0,60.9,55.5,-61.5,83,61,3,29.99,29.76,0,0,0,1.49
2013-5-17,78.5,68.2,54.5,61.7,57.7,52.3,96,71,50,30.14,29.97,0,0,0,0.00
2013-5-18,66.0,61.2,57.2,60.7,56.9,53.6,100,86,76,30.23,30.13,0,0,0,0.00
2013-5-19,68.4,60.4,55.6,63.9,59.1,55.6,100,96,83,30.21,30.09,0,0,0,0.02
2013-5-20,78.8,69.2,61.4,69.7,65.2,61.4,100,88,67,30.13,30.00,0,0,0,0.01
2013-5-21,84.6,72.2,59.0,71.6,66.6,59.0,100,84,59,30.02,29.89,0,0,0,0.00
2013-5-22,86.9,73.9,61.7,69.9,66.2,60.7,100,79,51,29.96,29.85,0,0,0,0.45
2013-5-23,74.5,65.5,60.6,69.2,63.5,60.6,100,93,78,29.92,29.78,0,0,0,0.18
2013-5-24,60.8,51.9,42.8,60.8,44.2,32.7,100,76,56,30.21,29.80,0,0,0,0.01
2013-5-25,60.1,49.7,39.2,40.2,35.6,32.3,78,60,41,30.23,30.13,0,0,0,0.03
2013-5-26,67.1,56.1,47.0,40.5,37.1,32.3,69,50,29,30.25,30.15,0,0,0,0.00
2013-5-27,63.2,54.5,41.6,50.4,44.6,36.8,88,70,51,30.30,30.19,0,0,0,0.00
2013-5-28,78.3,63.9,50.4,67.5,58.2,48.2,96,82,65,30.21,30.06,0,0,0,0.00
2013-5-29,84.4,73.9,62.4,68.2,64.2,60.5,98,73,50,30.16,30.08,0,0,0,0.00
2013-5-30,85.7,73.0,60.8,73.5,65.6,59.7,97,79,55,30.23,30.12,0,0,0,0.14
2013-5-31,85.5,73.3,58.3,68.8,64.1,57.9,99,75,46,30.18,30.04,0,0,0,0.00
2013-6-1,85.8,77.2,70.4,71.3,67.0,64.0,83,71,54,30.08,29.93,0,0,0,0.00
2013-6-2,79.4,71.6,65.3,70.3,66.0,62.9,100,83,69,29.93,29.88,0,0,0,0.59
2013-6-3,74.3,67.2,60.1,66.9,62.1,54.1,100,84,67,30.02,29.88,0,0,0,0.17
2013-6-4,70.9,60.5,48.8,54.3,50.1,45.0,95,70,47,30.16,30.02,0,0,0,0.00
2013-6-5,74.3,62.6,48.6,60.9,55.0,47.4,97,78,55,30.19,30.05,0,0,0,0.04
2013-6-6,64.4,61.0,58.7,62.3,58.2,53.6,100,91,81,30.07,29.88,0,0,0,0.54
2013-6-7,65.0,62.7,60.8,64.7,62.4,60.8,100,99,96,29.88,29.69,0,0,0,0.28
2013-6-8,74.3,66.3,59.2,65.0,60.9,56.6,100,83,69,30.13,29.79,0,0,0,0.00
2013-6-9,73.8,66.8,58.1,68.8,63.1,57.3,99,88,74,30.22,30.11,0,0,0,0.00
2013-6-10,75.9,67.2,64.2,72.1,66.7,64.2,100,98,86,30.12,29.83,0,0,0,1.62
2013-6-11,75.2,68.9,61.2,65.8,63.6,61.2,100,84,69,29.91,29.83,0,0,0,0.01
2013-6-12,83.9,75.2,65.7,69.9,66.3,63.0,95,75,55,29.92,29.83,0,0,0,0.01
2013-6-13,78.8,68.5,64.1,70.6,64.3,57.1,100,87,71,29.84,29.56,0,0,0,0.57
2013-6-14,74.0,65.8,58.8,58.3,55.3,53.0,83,70,49,30.04,29.69,0,0,0,0.02
2013-6-15,77.0,67.4,57.4,60.9,55.8,51.2,91,68,41,30.13,30.03,0,0,0,0.00
2013-6-16,77.2,68.1,58.1,66.5,60.7,52.8,94,78,64,30.07,29.94,0,0,0,0.00
2013-6-17,81.9,72.8,62.6,69.7,65.6,60.3,95,79,61,30.00,29.92,3,0,3,0.00
2013-6-18,71.1,67.8,63.9,68.3,65.9,62.5,98,94,87,29.96,29.84,10,1,10,0.38
2013-6-19,73.1,65.4,60.1,64.5,61.2,57.3,100,87,68,30.17,29.92,8,2,8,0.00
2013-6-20,75.2,66.6,58.3,66.8,62.2,58.3,100,87,67,30.26,30.17,19,5,19,0.00
2013-6-21,78.5,68.6,56.7,65.4,61.0,54.8,97,78,60,30.30,30.24,16,4,16,0.00
2013-6-22,82.6,71.0,57.8,69.5,63.7,56.6,98,79,57,30.27,30.15,14,3,14,0.00
2013-6-23,82.4,72.1,62.1,71.9,66.6,61.8,100,84,60,30.21,30.10,9,2,9,0.00
2013-6-24,86.2,73.9,64.4,72.4,68.1,62.9,97,83,57,30.18,30.07,18,2,18,0.28
2013-6-25,87.1,76.3,64.2,73.1,68.8,61.6,99,79,56,30.08,29.94,12,2,12,0.00
2013-6-26,84.6,73.0,65.0,73.7,66.9,61.3,99,82,61,29.97,29.88,16,2,16,0.05
2013-6-27,81.9,72.3,64.8,73.2,68.1,64.8,100,87,72,29.88,29.67,19,3,19,0.03
2013-6-28,83.5,74.2,67.3,71.6,66.1,60.2,94,76,56,29.69,29.54,21,3,21,0.00
2013-6-29,81.9,71.8,62.4,66.0,62.7,59.1,95,74,53,29.76,29.57,18,2,18,0.00
2013-6-30,82.8,71.5,61.9,73.1,67.2,61.6,100,87,67,29.88,29.74,18,3,18,0.00
2013-7-1,79.2,72.3,67.1,71.4,68.9,67.1,100,90,73,29.99,29.87,21,4,21,0.02
2013-7-2,80.1,72.8,68.6,72.6,69.6,66.8,100,90,74,30.17,29.99,20,4,20,0.01
2013-7-3,78.8,72.5,68.2,73.5,70.0,67.3,100,92,79,30.25,30.16,16,2,16,0.01
2013-7-4,84.2,75.3,66.2,75.4,70.6,66.2,100,86,68,30.27,30.18,23,4,23,0.05
2013-7-5,85.7,76.6,67.7,73.1,70.1,67.7,100,81,61,30.25,30.14,16,3,16,0.00
2013-7-6,86.6,78.2,68.9,74.6,71.0,67.3,96,79,60,30.23,30.10,16,4,16,0.00
2013-7-7,86.2,73.4,66.6,74.7,68.7,64.9,100,86,63,30.14,30.03,16,3,16,0.52
2013-7-8,81.9,72.1,63.9,71.1,66.8,63.9,100,85,62,30.16,30.08,12,2,12,0.01
2013-7-9,81.9,73.5,67.5,72.7,69.1,66.1,98,87,71,30.15,30.04,12,2,12,0.00
2013-7-10,82.6,74.9,70.2,74.2,70.5,66.6,96,86,74,30.05,29.90,9,2,9,0.01
2013-7-11,79.5,73.3,68.0,69.4,67.5,65.0,98,82,68,29.99,29.90,9,2,9,0.00
2013-7-12,69.5,65.1,61.4,66.5,63.7,61.4,100,95,86,30.11,29.97,9,1,9,0.61
2013-7-13,79.0,71.4,65.5,70.8,68.1,65.5,100,90,73,30.29,30.09,13,2,13,0.00
2013-7-14,84.2,75.3,67.8,73.4,70.4,67.5,100,86,65,30.37,30.29,12,2,12,0.02
2013-7-15,87.6,76.1,64.1,75.1,70.2,64.1,100,83,59,30.36,30.25,8,1,8,0.00
2013-7-16,88.7,80.0,71.8,76.0,72.1,68.5,93,77,64,30.32,30.23,7,2,7,0.00
2013-7-17,88.9,81.2,73.2,75.9,73.2,69.6,89,77,62,30.29,30.15,8,2,8,0.00
2013-7-18,90.5,82.2,74.3,77.3,74.4,71.0,92,78,60,30.18,30.06,10,2,10,0.00
2013-7-19,91.2,78.8,70.9,77.7,72.5,66.6,100,82,57,30.07,29.92,12,2,12,0.01
2013-7-20,88.5,78.8,68.9,74.5,70.8,67.0,96,78,57,29.95,29.85,10,2,10,0.00
2013-7-21,82.1,73.7,68.7,71.9,68.6,66.4,97,85,69,30.00,29.93,14,2,14,0.02
2013-7-22,82.8,71.6,66.4,74.1,69.3,66.4,100,93,69,29.99,29.81,22,2,22,1.59
2013-7-23,80.4,73.2,67.1,71.1,68.3,65.7,100,86,65,29.82,29.72,13,2,13,0.15
2013-7-24,76.7,70.2,63.9,66.9,63.3,57.1,99,79,62,29.98,29.74,11,3,11,0.01
2013-7-25,73.1,64.0,55.4,60.7,56.4,52.4,92,77,57,30.09,29.97,10,2,10,0.00
2013-7-26,77.2,65.9,53.1,62.1,58.1,52.3,98,78,52,30.14,30.05,12,2,12,0.00
2013-7-27,76.1,67.4,60.3,69.8,64.6,59.0,100,91,77,30.07,29.94,14,2,14,0.05
2013-7-28,78.3,69.5,60.6,69.4,65.9,59.9,100,89,67,30.04,29.90,11,2,11,0.26
2013-7-29,74.9,65.5,55.6,60.4,57.1,53.8,98,76,53,30.21,30.04,11,2,11,0.00
2013-7-30,76.1,66.9,57.4,63.6,59.7,54.8,94,78,62,30.27,30.17,9,2,9,0.00
2013-7-31,74.7,65.6,58.8,67.9,63.0,58.2,100,92,77,30.18,30.03,11,1,11,0.26
2013-8-1,79.0,69.6,63.3,70.8,65.9,63.3,100,89,67,30.03,29.85,11,2,11,0.01
2013-8-2,80.4,71.3,61.0,66.5,62.7,59.6,98,76,51,30.02,29.92,13,2,13,0.00
2013-8-3,71.8,67.2,62.4,66.5,63.0,59.7,100,87,71,30.02,29.97,11,1,11,0.23
2013-8-4,74.3,66.4,58.8,63.5,59.3,54.3,100,80,53,30.08,29.98,14,3,15,0.01
2013-8-5,73.6,65.3,54.5,60.1,56.7,51.9,95,75,52,30.15,30.04,11,2,11,0.00
2013-8-6,73.6,65.3,58.7,67.8,62.7,58.0,100,92,77,30.09,30.02,12,2,12,0.57
2013-8-7,78.8,69.8,65.0,72.8,67.9,64.9,100,94,77,30.08,30.01,15,2,15,0.11
2013-8-8,78.1,71.4,65.5,74.1,69.8,65.5,100,95,85,30.06,29.99,9,1,9,0.07
2013-8-9,79.9,74.2,70.2,75.9,71.4,69.1,100,91,78,30.02,29.93,10,2,10,0.04
2013-8-10,78.3,71.3,66.0,70.3,66.7,61.8,100,86,63,30.12,30.01,7,1,7,0.03
2013-8-11,81.2,71.7,64.6,70.7,67.4,63.8,100,87,67,30.15,30.03,13,2,13,0.00
2013-8-12,82.1,73.3,64.6,69.8,67.6,64.6,100,84,61,30.07,29.95,9,2,9,0.00
2013-8-13,80.4,71.1,63.9,69.9,66.8,60.1,100,87,64,29.95,29.80,13,2,13,0.44
2013-8-14,67.7,61.5,54.5,60.1,52.3,48.4,84,72,57,30.15,29.90,15,4,15,0.00
2013-8-15,70.9,61.4,51.8,55.5,52.3,48.2,93,74,49,30.22,30.13,10,2,10,0.00
2013-8-16,74.1,61.6,48.4,59.3,54.1,46.9,98,78,52,30.23,30.15,13,2,13,0.00
2013-8-17,74.3,63.3,51.1,61.3,57.1,50.3,98,81,60,30.31,30.23,14,2,14,0.00
2013-8-18,66.4,61.8,58.8,62.2,59.7,57.2,100,93,84,30.29,30.21,7,1,7,0.16
2013-8-19,74.7,65.2,57.8,68.7,63.3,57.8,100,94,81,30.21,30.09,10,1,10,0.01
2013-8-20,79.9,68.9,58.5,69.7,64.0,58.5,100,85,63,30.22,30.13,8,1,8,0.00
2013-8-21,83.7,70.3,60.1,73.0,66.7,60.1,100,89,64,30.23,30.10,12,2,12,0.02
2013-8-22,81.9,72.0,63.9,69.7,66.3,63.6,100,83,62,30.13,29.99,12,2,12,0.00
2013-8-23,72.7,66.0,57.8,67.6,64.0,-61.5,100,93,83,30.16,29.99,8,1,8,0.53
2013-8-24,74.9,63.9,54.9,64.4,58.9,54.9,100,85,56,30.36,30.16,9,2,9,0.00
2013-8-25,76.5,64.4,52.5,64.9,58.6,52.4,100,83,57,30.43,30.28,18,2,18,0.00
2013-8-26,81.9,70.1,58.7,66.9,62.9,57.3,97,79,56,30.30,30.06,13,2,13,0.00
2013-8-27,80.8,74.7,66.6,71.9,68.3,63.6,95,81,71,30.06,29.95,14,2,14,0.00
2013-8-28,73.1,70.1,66.4,71.2,69.3,65.3,100,97,90,29.98,29.85,8,1,8,0.45
2013-8-29,78.6,71.6,65.3,71.9,69.1,64.9,100,92,74,30.06,29.90,7,1,7,0.01
2013-8-30,83.0,71.4,61.4,71.7,67.0,61.4,100,87,64,30.06,29.91,17,2,17,0.00
2013-8-31,83.3,75.3,69.3,74.1,70.8,66.9,99,87,70,29.92,29.83,13,2,13,0.00
2013-9-1,84.0,73.1,63.9,73.1,68.5,63.7,100,86,66,29.90,29.81,11,2,11,0.00
2013-9-2,84.9,75.0,66.9,72.3,69.2,66.5,100,83,61,29.87,29.78,13,2,13,0.00
2013-9-3,77.2,70.9,62.6,67.7,61.4,55.1,91,73,50,30.03,29.81,13,3,13,0.00
2013-9-4,77.9,65.3,53.8,58.9,56.2,52.2,97,74,48,30.14,30.03,11,2,12,0.00
2013-9-5,75.8,66.3,55.6,63.0,57.2,50.7,95,73,54,30.18,30.07,13,2,13,0.00
2013-9-6,70.4,60.1,52.0,52.6,49.7,46.7,84,69,49,30.29,30.16,14,2,14,0.00
2013-9-7,77.4,61.7,47.1,60.8,53.3,45.1,96,76,48,30.17,29.98,10,2,10,0.00
2013-9-8,81.9,70.9,61.7,68.3,62.3,55.5,90,75,61,30.09,29.93,9,2,9,0.00
2013-9-9,74.5,65.4,58.1,64.2,58.2,51.4,94,78,61,30.23,30.09,14,3,14,0.00
2013-9-10,88.4,75.0,61.5,74.6,69.1,60.4,100,83,61,30.21,30.12,17,2,17,0.00
2013-9-11,89.1,77.1,66.6,75.3,70.7,66.6,100,82,57,30.20,30.05,17,2,17,0.00
2013-9-12,88.4,74.5,65.5,73.3,67.0,63.4,100,79,51,30.05,29.79,20,2,20,0.00
2013-9-13,71.8,64.4,54.9,63.4,55.2,48.0,89,73,49,30.00,29.77,18,5,18,0.00
2013-9-14,62.8,53.8,46.2,47.9,44.9,42.4,88,73,55,30.18,30.00,14,3,14,0.00
2013-9-15,73.2,57.4,41.4,58.1,50.0,40.2,98,78,54,30.23,30.09,18,3,18,0.00
2013-9-16,65.5,59.6,55.8,57.9,55.5,51.5,97,87,69,30.26,30.05,11,2,11,0.06
2013-9-17,63.5,54.2,44.8,54.4,44.9,39.3,94,73,43,30.44,30.26,9,2,9,0.00
2013-9-18,68.0,52.3,36.5,51.8,44.4,34.4,98,76,51,30.34,30.18,17,2,17,0.00
2013-9-19,73.2,58.8,45.5,60.5,53.1,44.1,98,83,62,30.20,30.08,11,2,11,0.00
2013-9-20,77.9,63.8,50.9,64.6,58.5,50.5,100,84,61,30.10,29.96,18,3,18,0.00
2013-9-21,67.7,61.3,56.7,63.6,60.2,56.7,100,96,85,29.96,29.72,21,4,21,0.64
2013-9-22,66.9,58.0,47.5,57.1,52.6,44.6,100,84,59,30.00,29.78,12,2,12,0.01
2013-9-23,60.1,52.7,44.8,48.0,45.7,41.8,96,78,62,30.12,30.00,11,2,11,0.00
2013-9-24,67.8,51.7,37.8,54.3,45.9,36.5,99,82,59,30.13,29.97,6,1,6,0.00
2013-9-25,69.3,54.4,41.6,53.3,47.4,40.6,99,79,49,30.03,29.91,11,1,11,0.00
2013-9-26,69.6,56.3,46.6,54.6,49.3,44.8,98,79,53,30.10,29.95,10,1,10,0.00
2013-9-27,68.7,54.5,43.5,57.0,49.6,42.2,99,85,61,30.24,30.10,11,1,11,0.00
2013-9-28,62.6,55.0,46.8,56.0,51.1,46.4,100,88,69,30.33,30.23,9,1,9,0.00
2013-9-29,68.2,54.4,41.9,55.1,48.4,40.9,100,82,53,30.23,30.08,13,2,13,0.00
2013-9-30,72.5,57.2,43.2,57.2,50.5,42.3,99,80,56,30.11,30.00,14,1,14,0.00
2013-10-1,76.8,64.3,53.4,61.7,56.6,51.2,98,78,51,30.11,30.02,11,2,11,0.00
2013-10-2,79.9,66.1,53.4,63.3,57.9,52.4,97,77,50,30.13,30.05,11,2,11,0.00
2013-10-3,79.2,66.0,53.8,65.2,59.7,52.6,98,82,57,30.16,30.06,13,2,13,0.00
2013-10-4,82.1,67.1,56.7,66.9,61.4,56.3,100,84,55,30.13,30.05,7,1,7,0.00
2013-10-5,84.4,69.7,58.3,68.6,62.5,57.7,99,80,50,30.14,30.03,0,0,0,0.00
2013-10-6,85.8,72.2,61.0,66.7,62.7,59.1,97,74,43,30.05,29.91,0,0,0,0.00
2013-10-7,68.9,63.3,53.3,66.0,59.9,44.1,100,89,68,30.09,29.77,0,0,0,0.93
2013-10-8,64.6,54.3,44.8,49.7,45.5,41.7,92,73,55,30.31,30.09,0,0,0,0.00
2013-10-9,57.4,51.2,45.2,48.3,45.0,42.2,91,80,67,30.35,30.26,0,0,0,0.02
2013-10-10,50.6,49.3,47.7,49.8,47.7,45.9,100,94,88,30.26,30.05,0,0,0,1.35
2013-10-11,56.0,52.8,49.5,56.0,52.6,49.5,100,99,98,30.05,30.00,0,0,0,1.41
2013-10-12,58.8,57.2,54.2,58.5,57.1,54.2,100,100,98,30.20,30.03,0,0,0,0.82
2013-10-13,55.6,54.5,53.4,55.3,54.4,53.4,100,100,99,30.33,30.19,0,0,0,0.82
2013-10-14,59.9,54.3,50.4,56.7,53.5,50.4,100,97,87,30.34,30.24,0,0,0,0.01
2013-10-15,65.5,55.0,45.7,57.0,51.4,45.7,100,89,63,30.24,30.09,0,0,0,0.00
2013-10-16,66.6,53.6,48.0,59.4,51.9,48.0,100,94,75,30.09,29.96,0,0,0,0.00
2013-11-5,48.6,38.8,-2.0,41.2,22.2,-61.5,86,58,3,30.58,30.42,12,2,12,0.00
2013-11-6,67.1,47.9,-2.0,51.2,35.5,-47.1,92,68,9,30.42,30.12,18,3,18,0.00